Airfield :
LOGIN :

Register | Disclaimer

   EN    FR    IT 

 










Legend :    VFR   Marginal VFR   IFR   Intensive IFR   Very Intensive IFR
Visi :
Ceiling :
>= 8 km
>= 3000ft
5 to 8 km
1000 to 3000 ft
1500m to 5 km
500 to 1000 ft
800 to 1500m
200 to 500 ft
< 800m
< 200 ft
Symbols :   Thunderstorms  Fog  Heavy snow  Heavy precipitations  Wind > 20 kt
SIGMETs :     Misc.  Thunderstorms  Icing  Turbulence  Mountain Waves  Volcanic Ashes






- Airport Elevation : 80 ft
- IATA code : LPL


EGGP - Liverpool John Lennon

CURRENT METAR :
  • 011750Z 30014KT 9999 FEW019 BKN043 09/05 Q1021

EXPIRED METARs :
  • 011720Z 29014KT 9999 FEW019 SCT024 BKN041 08/04 Q1021
  • 011650Z 30011KT 9999 FEW017 SCT021 BKN041 08/04 Q1021
  • 011620Z 30016KT 9999 SCT017 BKN037 09/05 Q1021
  • 011550Z 29014KT 9999 SCT019 BKN021 09/05 Q1022
  • 011520Z 30015KT 9999 SCT019 BKN021 10/05 Q1022

TAF TAF EGGP
Valid from the 01 at 18:00 until the 02 at 18:00 UTC


011701Z 0118/0218 29011KT 9999 BKN025
BECMG 0121/0124 BKN014
PROB30
TEMPO 0200/0203 8000 -RA
PROB30
TEMPO 0200/0212 BKN008
TEMPO 0209/0218 27018G28KT
PROB30
TEMPO 0209/0212 5000 RA
BECMG 0212/0215 BKN025
PROB30
TEMPO 0212/0216 7000 SHRA
ATIS : +44 151 907 2000 (option 5 or ext 5150)
Met : +44 871 750 5150



MET'MAP, your aeronautical weather chart ! - Copyright ORBIFLY December 2007 - Disclaimer

ORBIFLY MET'MAP TEAM :

Programming & Development : Alexandra Zaïnal
Concept & original design : Baudouin d'Aumeries
Assistance for programming : Marc-Olivier Méhu
Technical & hardware support : Manuel Goepfert

Contact : metmap@orbifly.com




SOURCES & CREDITS :

   NOAA